ADDS METAR Data INFO
IDs: Format: Raw Decoded Include TAF

Data at: 0350 UTC 20 Feb 2018

KEQY 200253Z AUTO VRB03KT 1/2SM FG VV002 11/11 A3040 RMK AO2 SLP308 T01110111 53009 $
KEQY 200153Z AUTO 06003KT 1/4SM FG VV002 11/11 A3039 RMK AO2 SLP304 T01110111 $
KEQY 200053Z AUTO 00000KT 1/2SM FG VV002 12/12 A3038 RMK AO2 SLP301 T01170117 $
KEQY 200027Z AUTO 06004KT 1/2SM FG OVC002 12/12 A3038 RMK AO2 T01170117 $
KEQY 200018Z AUTO 06003KT 1SM BR OVC002 12/12 A3038 RMK AO2 T01170117 $
KEQY 200002Z AUTO 06003KT 1/2SM FG VV002 12/12 A3038 RMK AO2 T01170117 $
KEQY 192353Z AUTO 07003KT 3/4SM BR OVC002 12/12 A3037 RMK AO2 SLP298 T01170117 10133 20111 53006 $
KEQY 192346Z AUTO 05003KT 1SM BR OVC002 12/12 A3038 RMK AO2 T01170117 $
KEQY 192333Z AUTO 05003KT 1/2SM FG VV002 12/12 A3038 RMK AO2 T01170117 $
KEQY 192323Z AUTO 06003KT 3/4SM BR OVC002 12/12 A3037 RMK AO2 T01170117 $
KEQY 192316Z AUTO 04003KT 1/2SM FG OVC002 12/12 A3037 RMK AO2 T01220122 $
KEQY 192307Z AUTO 05004KT 3/4SM BR OVC002 12/12 A3037 RMK AO2 T01220122 $
KEQY 192253Z AUTO 04004KT 1 3/4SM BR OVC003 12/12 A3037 RMK AO2 SLP296 T01220122 $
KEQY 192236Z AUTO 05004KT 2 1/2SM BR OVC003 12/12 A3037 RMK AO2 T01220122 $
KEQY 192219Z AUTO 05003KT 3SM BR OVC003 12/12 A3036 RMK AO2 T01220122 $
KEQY 192208Z AUTO 06004KT 2 1/2SM BR OVC004 12/12 A3036 RMK AO2 T01220117 $
KEQY 192153Z AUTO 05005KT 4SM BR OVC005 13/12 A3036 RMK AO2 SLP291 T01280122 $
KEQY 192053Z AUTO VRB03KT 6SM BR OVC007 13/12 A3036 RMK AO2 SLP291 T01330117 58005 $
KEQY 191953Z AUTO VRB03KT 6SM BR OVC005 13/12 A3036 RMK AO2 SLP292 T01280117 $
KEQY 191853Z AUTO 00000KT 4SM BR OVC003 12/11 A3037 RMK AO2 SLP296 T01170111 $
KEQY 191848Z AUTO 00000KT 4SM BR OVC003 12/11 A3037 RMK AO2 $
KEQY 191833Z AUTO 00000KT 2 1/2SM BR OVC003 11/11 A3037 RMK AO2 T01110111 $
KEQY 191810Z AUTO 00000KT 3SM BR OVC003 11/11 A3038 RMK AO2 T01060106 $
KEQY 191753Z AUTO 03003KT 3SM BR OVC002 11/11 A3040 RMK AO2 SLP305 T01110111 10111 20089 58012 $
KEQY 191725Z AUTO 00000KT 3SM BR OVC002 11/11 A3042 RMK AO2 T01060106 $
KEQY 191713Z AUTO 00000KT 1 1/4SM BR OVC002 10/10 A3042 RMK AO2 T01000100 $
KEQY 191700Z AUTO 04003KT 3/4SM BR OVC002 11/11 A3043 RMK AO2 T01060106 $
KEQY 191653Z AUTO 02003KT 1SM BR OVC002 10/10 A3043 RMK AO2 SLP316 T01000100 $
KEQY 191619Z AUTO 06004KT 3/4SM BR OVC002 10/10 A3043 RMK AO2 T01000100 $
KEQY 191605Z AUTO 04004KT 1SM BR OVC002 10/10 A3043 RMK AO2 T01000100 $
KEQY 191553Z AUTO 05003KT 3/4SM BR OVC002 09/09 A3043 RMK AO2 SLP317 T00940094 $
KEQY 191548Z AUTO 08004KT 3/4SM BR OVC002 09/09 A3043 RMK AO2 $
KEQY 191535Z AUTO VRB03KT 1 1/2SM BR OVC002 09/09 A3043 RMK AO2 T00940094 $
KEQY 191526Z AUTO 07003KT 2SM BR OVC002 09/09 A3043 RMK AO2 T00940094 $
KEQY 191511Z AUTO VRB03KT 3SM BR OVC002 09/09 A3044 RMK AO2 T00940094 $
KEQY 191453Z AUTO 06003KT 1SM BR OVC002 09/09 A3043 RMK AO2 SLP317 T00890089 53004 $
KEQY 191418Z AUTO 06004KT 1 1/2SM BR OVC002 09/09 A3043 RMK AO2 T00890089 $
KEQY 191408Z AUTO 06005KT 2SM BR OVC002 09/09 A3042 RMK AO2 T00890089 $
KEQY 191353Z AUTO 00000KT 3SM BR OVC002 09/09 A3042 RMK AO2 SLP314 T00890089 $
KEQY 191307Z AUTO 05003KT 3SM BR OVC002 09/09 A3042 RMK AO2 T00890089 $
KEQY 191253Z AUTO 06004KT 2 1/2SM BR OVC002 09/09 A3042 RMK AO2 SLP314 T00890089 $
KEQY 191249Z AUTO 05004KT 2 1/2SM BR OVC002 09/09 A3042 RMK AO2 $
KEQY 191237Z AUTO VRB04KT 2SM BR OVC003 09/09 A3041 RMK AO2 T00890089 $
KEQY 191224Z AUTO VRB04KT 1 3/4SM BR OVC003 09/09 A3041 RMK AO2 T00890089 $
KEQY 191205Z AUTO VRB03KT 3SM BR OVC003 09/09 A3041 RMK AO2 T00890089 $
KEQY 191153Z AUTO 06003KT 2 1/2SM BR OVC004 09/09 A3041 RMK AO2 SLP310 60003 70004 T00890089 10117 20089 51014 $
KEQY 191053Z AUTO 00000KT 2 1/2SM BR OVC004 09/09 A3041 RMK AO2 RAB27E39 CIG 003V007 SLP307 P0001 T00940094 $
KEQY 191019Z AUTO 00000KT 2 1/2SM BR OVC003 09/09 A3040 RMK AO2 T00940094 $
KEQY 191010Z AUTO 08004KT 3SM BR OVC003 09/09 A3040 RMK AO2 T00940094 $
KEQY 190953Z AUTO 08004KT 2 1/2SM BR OVC003 09/09 A3039 RMK AO2 SLP300 T00940094 $
KEQY 190929Z AUTO VRB04KT 2 1/2SM BR OVC003 09/09 A3038 RMK AO2 T00940094 $
KEQY 190915Z AUTO 08005KT 1 3/4SM BR OVC003 09/09 A3037 RMK AO2 T00940094 $
KEQY 190853Z AUTO 07004KT 2 1/2SM BR OVC003 10/10 A3037 RMK AO2 RAB03E35 SLP294 P0000 60002 T01000100 52003 $
KEQY 190849Z AUTO VRB05KT 3SM BR OVC003 10/10 A3037 RMK AO2 RAB03E35 P0000 $
KEQY 190753Z AUTO VRB03KT 4SM BR BKN005 OVC013 11/11 A3036 RMK AO2 RAB0656E34 CIG 003V008 SLP290 P0001 T01060106 $
KEQY 190716Z AUTO 10005KT 3SM -RA BR BKN008 OVC014 11/11 A3036 RMK AO2 RAB0656 P0000 T01060106 $
KEQY 190708Z AUTO 10004KT 2 1/2SM -RA BR BKN006 OVC014 11/11 A3036 RMK AO2 RAB0656 P0000 T01060106 $
KEQY 190659Z AUTO 00000KT 2 1/2SM -RA BR SCT006 OVC013 11/11 A3036 RMK AO2 RAB56 P0000 T01110111 $
KEQY 190653Z AUTO VRB04KT 3SM BR SCT006 SCT010 OVC015 11/11 A3036 RMK AO2 RAE52 SLP290 P0001 T01110106 $
KEQY 190645Z AUTO VRB03KT 3SM -RA BR FEW006 BKN013 OVC021 11/11 A3036 RMK AO2 P0001 T01110111 $
KEQY 190553Z AUTO 00000KT 5SM -RA BR OVC023 12/11 A3037 RMK AO2 SLP293 P0001 60001 T01170111 10139 20111 $
KEQY 190532Z AUTO 00000KT 6SM -RA BR OVC028 13/11 A3037 RMK AO2 P0000 T01280106 $
KEQY 190453Z AUTO VRB03KT 10SM -RA OVC035 13/10 A3037 RMK AO2 RAB53 SLP294 P0000 T01330100 401780067 $
KEQY 190353Z AUTO 00000KT 10SM BKN037 OVC050 13/07 A3036 RMK AO2 SLP292 T01330067 $
KEQY 190253Z AUTO 00000KT 10SM OVC039 13/05 A3036 RMK AO2 SLP291 T01330050 53011
KEQY 190153Z AUTO 07003KT 10SM OVC044 13/04 A3034 RMK AO2 SLP288 T01330044
KEQY 190053Z AUTO 07004KT 10SM BKN046 12/04 A3033 RMK AO2 SLP285 T01170039
KEQY 182353Z AUTO 06003KT 10SM CLR 13/04 A3032 RMK AO2 SLP281 T01330039 10178 20128 53010
KEQY 182253Z AUTO 00000KT 10SM CLR 16/03 A3030 RMK AO2 SLP272 T01610033
KEQY 182153Z AUTO VRB05KT 10SM CLR 17/03 A3029 RMK AO2 SLP268 T01720033
KEQY 182053Z AUTO VRB04KT 10SM CLR 18/03 A3029 RMK AO2 SLP268 T01780028 55013
KEQY 181953Z AUTO VRB05KT 10SM CLR 17/03 A3029 RMK AO2 SLP267 T01670033
KEQY 181853Z AUTO VRB05KT 10SM CLR 17/04 A3030 RMK AO2 SLP272 T01670039
KEQY 181753Z AUTO VRB04KT 10SM CLR 16/03 A3033 RMK AO2 SLP282 T01560028 10156 20067 50005
KEQY 181653Z AUTO 06010G15KT 10SM CLR 13/04 A3035 RMK AO2 SLP288 T01330039
KEQY 181553Z AUTO 04011KT 10SM CLR 12/04 A3034 RMK AO2 SLP287 T01170044